sensor_id;sensor_type;location;lat;lon;timestamp;P1;durP1;ratioP1;P2;durP2;ratioP2
20857;SDS011;10589;53.636;10.012;2022-12-16T04:47:09;55.03;;;29.53;;
20857;SDS011;10589;53.636;10.012;2022-12-16T04:49:53;51.30;;;28.07;;
20857;SDS011;10589;53.636;10.012;2022-12-16T04:52:37;50.20;;;28.43;;
20857;SDS011;10589;53.636;10.012;2022-12-16T04:55:21;57.43;;;29.73;;
20857;SDS011;10589;53.636;10.012;2022-12-16T04:58:05;53.47;;;28.47;;
20857;SDS011;10589;53.636;10.012;2022-12-16T05:00:49;55.53;;;31.03;;
20857;SDS011;10589;53.636;10.012;2022-12-16T05:03:34;56.73;;;30.43;;
20857;SDS011;10589;53.636;10.012;2022-12-16T05:06:18;51.70;;;29.87;;
20857;SDS011;10589;53.636;10.012;2022-12-16T05:09:03;54.83;;;30.60;;
20857;SDS011;10589;53.636;10.012;2022-12-16T05:11:48;52.83;;;29.07;;
20857;SDS011;10589;53.636;10.012;2022-12-16T05:14:32;53.03;;;30.00;;
20857;SDS011;10589;53.636;10.012;2022-12-16T05:17:17;53.23;;;29.83;;
20857;SDS011;10589;53.636;10.012;2022-12-16T05:20:01;50.57;;;29.90;;
20857;SDS011;10589;53.636;10.012;2022-12-16T05:22:45;48.63;;;28.53;;
20857;SDS011;10589;53.636;10.012;2022-12-16T05:25:30;50.47;;;28.37;;
20857;SDS011;10589;53.636;10.012;2022-12-16T05:28:14;50.90;;;28.07;;
20857;SDS011;10589;53.636;10.012;2022-12-16T05:30:58;50.53;;;28.33;;
20857;SDS011;10589;53.636;10.012;2022-12-16T05:33:42;52.23;;;27.50;;
20857;SDS011;10589;53.636;10.012;2022-12-16T05:36:26;50.30;;;28.13;;
20857;SDS011;10589;53.636;10.012;2022-12-16T05:39:10;49.83;;;27.87;;
20857;SDS011;10589;53.636;10.012;2022-12-16T05:41:54;50.23;;;28.30;;
20857;SDS011;10589;53.636;10.012;2022-12-16T05:44:38;49.77;;;29.50;;
20857;SDS011;10589;53.636;10.012;2022-12-16T05:47:22;47.93;;;28.50;;
20857;SDS011;10589;53.636;10.012;2022-12-16T05:50:07;45.97;;;26.93;;
20857;SDS011;10589;53.636;10.012;2022-12-16T05:52:52;50.07;;;27.73;;
20857;SDS011;10589;53.636;10.012;2022-12-16T05:55:37;47.63;;;26.93;;
20857;SDS011;10589;53.636;10.012;2022-12-16T05:58:22;48.17;;;28.07;;
20857;SDS011;10589;53.636;10.012;2022-12-16T06:01:07;47.33;;;27.67;;
20857;SDS011;10589;53.636;10.012;2022-12-16T06:03:51;42.83;;;26.43;;
20857;SDS011;10589;53.636;10.012;2022-12-16T06:06:35;45.57;;;26.80;;
20857;SDS011;10589;53.636;10.012;2022-12-16T06:09:19;43.03;;;25.63;;
20857;SDS011;10589;53.636;10.012;2022-12-16T06:12:03;45.00;;;25.17;;
20857;SDS011;10589;53.636;10.012;2022-12-16T06:14:48;41.70;;;24.93;;
20857;SDS011;10589;53.636;10.012;2022-12-16T06:17:32;42.87;;;24.00;;
20857;SDS011;10589;53.636;10.012;2022-12-16T06:20:16;44.07;;;25.60;;
20857;SDS011;10589;53.636;10.012;2022-12-16T06:23:00;40.33;;;25.23;;
20857;SDS011;10589;53.636;10.012;2022-12-16T06:25:45;42.87;;;23.57;;
20857;SDS011;10589;53.636;10.012;2022-12-16T06:28:29;45.37;;;25.70;;
20857;SDS011;10589;53.636;10.012;2022-12-16T06:31:13;40.90;;;24.00;;
20857;SDS011;10589;53.636;10.012;2022-12-16T06:33:57;44.13;;;24.23;;
20857;SDS011;10589;53.636;10.012;2022-12-16T06:36:41;40.83;;;24.03;;
20857;SDS011;10589;53.636;10.012;2022-12-16T06:39:26;38.53;;;23.37;;
20857;SDS011;10589;53.636;10.012;2022-12-16T06:42:10;40.97;;;24.47;;
20857;SDS011;10589;53.636;10.012;2022-12-16T06:44:54;44.53;;;24.87;;
20857;SDS011;10589;53.636;10.012;2022-12-16T06:47:38;42.90;;;24.57;;
20857;SDS011;10589;53.636;10.012;2022-12-16T06:50:25;43.40;;;24.80;;
20857;SDS011;10589;53.636;10.012;2022-12-16T06:53:09;40.67;;;25.70;;
20857;SDS011;10589;53.636;10.012;2022-12-16T06:55:53;41.97;;;24.27;;
20857;SDS011;10589;53.636;10.012;2022-12-16T06:58:37;43.33;;;23.77;;
20857;SDS011;10589;53.636;10.012;2022-12-16T07:01:21;42.27;;;24.70;;
20857;SDS011;10589;53.636;10.012;2022-12-16T07:04:23;45.07;;;26.83;;
20857;SDS011;10589;53.636;10.012;2022-12-16T07:07:07;46.97;;;28.13;;
20857;SDS011;10589;53.636;10.012;2022-12-16T07:09:51;45.50;;;25.53;;
20857;SDS011;10589;53.636;10.012;2022-12-16T07:12:35;44.83;;;27.60;;
20857;SDS011;10589;53.636;10.012;2022-12-16T07:15:36;53.07;;;28.87;;
20857;SDS011;10589;53.636;10.012;2022-12-16T07:18:20;55.77;;;29.87;;
20857;SDS011;10589;53.636;10.012;2022-12-16T07:21:05;51.30;;;29.77;;
20857;SDS011;10589;53.636;10.012;2022-12-16T07:23:49;55.27;;;30.90;;
20857;SDS011;10589;53.636;10.012;2022-12-16T07:26:33;52.77;;;32.63;;
20857;SDS011;10589;53.636;10.012;2022-12-16T07:29:17;63.63;;;31.50;;
20857;SDS011;10589;53.636;10.012;2022-12-16T07:32:01;56.60;;;31.63;;
20857;SDS011;10589;53.636;10.012;2022-12-16T07:34:45;51.83;;;31.40;;
20857;SDS011;10589;53.636;10.012;2022-12-16T07:37:30;61.63;;;34.30;;
20857;SDS011;10589;53.636;10.012;2022-12-16T07:40:14;64.33;;;32.83;;
20857;SDS011;10589;53.636;10.012;2022-12-16T07:42:58;58.00;;;32.00;;
20857;SDS011;10589;53.636;10.012;2022-12-16T07:45:42;59.37;;;32.40;;
20857;SDS011;10589;53.636;10.012;2022-12-16T07:48:26;71.03;;;33.90;;
20857;SDS011;10589;53.636;10.012;2022-12-16T07:51:10;59.63;;;34.07;;
20857;SDS011;10589;53.636;10.012;2022-12-16T07:53:54;60.87;;;33.23;;
20857;SDS011;10589;53.636;10.012;2022-12-16T07:56:38;57.10;;;33.00;;
20857;SDS011;10589;53.636;10.012;2022-12-16T07:59:22;60.20;;;34.23;;
20857;SDS011;10589;53.636;10.012;2022-12-16T08:02:09;60.23;;;32.53;;
20857;SDS011;10589;53.636;10.012;2022-12-16T08:04:54;58.33;;;32.90;;
20857;SDS011;10589;53.636;10.012;2022-12-16T08:07:38;58.53;;;32.37;;
20857;SDS011;10589;53.636;10.012;2022-12-16T08:10:24;53.20;;;30.60;;
20857;SDS011;10589;53.636;10.012;2022-12-16T08:13:08;65.60;;;33.43;;
20857;SDS011;10589;53.636;10.012;2022-12-16T08:15:52;64.30;;;35.73;;
20857;SDS011;10589;53.636;10.012;2022-12-16T08:18:36;57.43;;;32.80;;
20857;SDS011;10589;53.636;10.012;2022-12-16T08:21:21;53.30;;;30.37;;
20857;SDS011;10589;53.636;10.012;2022-12-16T08:24:05;60.80;;;33.57;;
20857;SDS011;10589;53.636;10.012;2022-12-16T08:26:49;56.83;;;31.90;;
20857;SDS011;10589;53.636;10.012;2022-12-16T08:29:33;59.47;;;31.87;;
20857;SDS011;10589;53.636;10.012;2022-12-16T08:32:17;56.97;;;33.20;;
20857;SDS011;10589;53.636;10.012;2022-12-16T08:35:01;59.57;;;32.57;;
20857;SDS011;10589;53.636;10.012;2022-12-16T08:37:46;53.87;;;30.87;;
20857;SDS011;10589;53.636;10.012;2022-12-16T08:40:30;56.70;;;32.03;;
20857;SDS011;10589;53.636;10.012;2022-12-16T08:43:14;56.97;;;30.73;;
20857;SDS011;10589;53.636;10.012;2022-12-16T08:45:59;53.23;;;28.93;;
20857;SDS011;10589;53.636;10.012;2022-12-16T08:48:43;57.10;;;31.93;;
20857;SDS011;10589;53.636;10.012;2022-12-16T08:51:28;54.93;;;31.23;;
20857;SDS011;10589;53.636;10.012;2022-12-16T08:54:12;53.03;;;30.53;;
20857;SDS011;10589;53.636;10.012;2022-12-16T08:56:57;55.97;;;33.47;;
20857;SDS011;10589;53.636;10.012;2022-12-16T08:59:41;56.43;;;34.27;;
20857;SDS011;10589;53.636;10.012;2022-12-16T09:02:26;57.83;;;32.77;;
20857;SDS011;10589;53.636;10.012;2022-12-16T09:05:10;59.73;;;35.30;;
20857;SDS011;10589;53.636;10.012;2022-12-16T09:08:01;62.83;;;35.67;;
20857;SDS011;10589;53.636;10.012;2022-12-16T09:10:46;57.47;;;34.37;;
20857;SDS011;10589;53.636;10.012;2022-12-16T09:13:30;59.13;;;34.40;;
20857;SDS011;10589;53.636;10.012;2022-12-16T09:16:14;62.27;;;36.50;;
20857;SDS011;10589;53.636;10.012;2022-12-16T09:18:58;62.30;;;35.10;;
20857;SDS011;10589;53.636;10.012;2022-12-16T09:21:42;52.33;;;31.63;;
20857;SDS011;10589;53.636;10.012;2022-12-16T09:24:26;62.90;;;34.93;;
20857;SDS011;10589;53.636;10.012;2022-12-16T09:27:10;62.67;;;35.90;;
20857;SDS011;10589;53.636;10.012;2022-12-16T09:29:54;57.77;;;33.83;;
20857;SDS011;10589;53.636;10.012;2022-12-16T09:32:42;61.87;;;35.80;;
20857;SDS011;10589;53.636;10.012;2022-12-16T09:35:27;58.73;;;34.07;;
20857;SDS011;10589;53.636;10.012;2022-12-16T09:38:11;60.97;;;35.30;;
20857;SDS011;10589;53.636;10.012;2022-12-16T09:40:55;55.00;;;33.63;;
20857;SDS011;10589;53.636;10.012;2022-12-16T09:43:53;59.00;;;33.40;;
20857;SDS011;10589;53.636;10.012;2022-12-16T09:47:03;59.33;;;34.17;;
20857;SDS011;10589;53.636;10.012;2022-12-16T09:50:29;60.40;;;33.77;;
20857;SDS011;10589;53.636;10.012;2022-12-16T09:53:18;52.03;;;31.53;;
20857;SDS011;10589;53.636;10.012;2022-12-16T09:56:05;56.67;;;33.63;;
20857;SDS011;10589;53.636;10.012;2022-12-16T09:58:57;63.27;;;34.80;;
20857;SDS011;10589;53.636;10.012;2022-12-16T10:01:44;55.33;;;33.87;;
20857;SDS011;10589;53.636;10.012;2022-12-16T10:04:33;57.60;;;33.60;;
20857;SDS011;10589;53.636;10.012;2022-12-16T10:07:18;48.87;;;31.20;;
20857;SDS011;10589;53.636;10.012;2022-12-16T10:10:19;52.37;;;32.47;;
20857;SDS011;10589;53.636;10.012;2022-12-16T10:13:27;50.13;;;31.40;;
20857;SDS011;10589;53.636;10.012;2022-12-16T10:23:28;59.50;;;31.47;;
20857;SDS011;10589;53.636;10.012;2022-12-16T10:29:36;49.57;;;30.40;;
20857;SDS011;10589;53.636;10.012;2022-12-16T10:32:34;50.40;;;32.10;;
20857;SDS011;10589;53.636;10.012;2022-12-16T10:35:26;50.90;;;31.53;;
20857;SDS011;10589;53.636;10.012;2022-12-16T10:38:24;49.37;;;30.13;;
20857;SDS011;10589;53.636;10.012;2022-12-16T10:41:20;53.23;;;30.37;;
20857;SDS011;10589;53.636;10.012;2022-12-16T10:44:30;54.90;;;32.83;;
20857;SDS011;10589;53.636;10.012;2022-12-16T10:47:17;49.17;;;30.73;;
20857;SDS011;10589;53.636;10.012;2022-12-16T10:50:02;51.87;;;31.00;;
20857;SDS011;10589;53.636;10.012;2022-12-16T10:55:58;49.77;;;29.50;;
20857;SDS011;10589;53.636;10.012;2022-12-16T10:58:50;50.43;;;30.53;;
20857;SDS011;10589;53.636;10.012;2022-12-16T11:01:37;48.53;;;30.20;;
20857;SDS011;10589;53.636;10.012;2022-12-16T11:04:34;50.83;;;30.07;;
20857;SDS011;10589;53.636;10.012;2022-12-16T11:13:29;44.90;;;28.37;;
20857;SDS011;10589;53.636;10.012;2022-12-16T11:16:20;50.60;;;28.53;;
20857;SDS011;10589;53.636;10.012;2022-12-16T11:22:21;47.07;;;29.57;;
20857;SDS011;10589;53.636;10.012;2022-12-16T11:25:12;47.07;;;29.33;;
20857;SDS011;10589;53.636;10.012;2022-12-16T11:30:51;48.77;;;30.30;;
20857;SDS011;10589;53.636;10.012;2022-12-16T11:33:38;48.63;;;30.13;;
20857;SDS011;10589;53.636;10.012;2022-12-16T11:36:23;49.33;;;31.57;;
20857;SDS011;10589;53.636;10.012;2022-12-16T11:39:12;54.63;;;33.00;;
20857;SDS011;10589;53.636;10.012;2022-12-16T11:41:58;48.60;;;31.57;;
20857;SDS011;10589;53.636;10.012;2022-12-16T11:44:51;51.00;;;32.10;;
20857;SDS011;10589;53.636;10.012;2022-12-16T11:47:51;47.37;;;30.40;;
20857;SDS011;10589;53.636;10.012;2022-12-16T11:50:57;54.37;;;31.77;;
20857;SDS011;10589;53.636;10.012;2022-12-16T11:53:58;54.47;;;31.63;;
20857;SDS011;10589;53.636;10.012;2022-12-16T11:57:14;49.47;;;30.10;;
20857;SDS011;10589;53.636;10.012;2022-12-16T12:00:02;49.03;;;30.63;;
20857;SDS011;10589;53.636;10.012;2022-12-16T12:02:55;46.70;;;31.17;;
20857;SDS011;10589;53.636;10.012;2022-12-16T12:11:37;46.30;;;30.53;;
20857;SDS011;10589;53.636;10.012;2022-12-16T12:18:04;46.53;;;28.93;;
20857;SDS011;10589;53.636;10.012;2022-12-16T12:21:16;42.30;;;27.80;;
20857;SDS011;10589;53.636;10.012;2022-12-16T12:24:08;46.10;;;30.33;;
20857;SDS011;10589;53.636;10.012;2022-12-16T12:30:28;44.83;;;28.40;;
20857;SDS011;10589;53.636;10.012;2022-12-16T12:33:28;44.13;;;28.90;;
20857;SDS011;10589;53.636;10.012;2022-12-16T12:39:22;44.27;;;29.07;;
20857;SDS011;10589;53.636;10.012;2022-12-16T12:42:29;44.03;;;29.53;;
20857;SDS011;10589;53.636;10.012;2022-12-16T12:48:22;41.23;;;27.50;;
20857;SDS011;10589;53.636;10.012;2022-12-16T12:51:12;44.60;;;28.57;;
20857;SDS011;10589;53.636;10.012;2022-12-16T12:54:12;41.83;;;27.97;;
20857;SDS011;10589;53.636;10.012;2022-12-16T12:57:06;42.37;;;29.53;;
20857;SDS011;10589;53.636;10.012;2022-12-16T13:02:54;45.33;;;29.40;;
20857;SDS011;10589;53.636;10.012;2022-12-16T13:05:54;49.57;;;31.20;;
20857;SDS011;10589;53.636;10.012;2022-12-16T13:08:44;46.10;;;30.30;;
20857;SDS011;10589;53.636;10.012;2022-12-16T13:11:32;49.00;;;31.10;;
20857;SDS011;10589;53.636;10.012;2022-12-16T13:17:15;49.03;;;31.00;;
20857;SDS011;10589;53.636;10.012;2022-12-16T13:20:04;42.40;;;29.57;;
20857;SDS011;10589;53.636;10.012;2022-12-16T13:26:10;44.00;;;28.67;;
20857;SDS011;10589;53.636;10.012;2022-12-16T13:31:59;46.17;;;29.13;;
20857;SDS011;10589;53.636;10.012;2022-12-16T13:43:48;55.50;;;30.87;;
20857;SDS011;10589;53.636;10.012;2022-12-16T13:52:18;51.67;;;31.53;;
20857;SDS011;10589;53.636;10.012;2022-12-16T13:55:12;52.50;;;31.43;;
20857;SDS011;10589;53.636;10.012;2022-12-16T13:58:04;51.10;;;30.53;;
20857;SDS011;10589;53.636;10.012;2022-12-16T14:00:57;47.53;;;30.53;;
20857;SDS011;10589;53.636;10.012;2022-12-16T14:03:56;44.93;;;28.23;;
20857;SDS011;10589;53.636;10.012;2022-12-16T14:06:42;47.67;;;30.93;;
20857;SDS011;10589;53.636;10.012;2022-12-16T14:15:30;49.57;;;29.37;;
20857;SDS011;10589;53.636;10.012;2022-12-16T14:18:50;48.80;;;29.53;;
20857;SDS011;10589;53.636;10.012;2022-12-16T14:22:14;49.40;;;29.10;;
20857;SDS011;10589;53.636;10.012;2022-12-16T14:25:13;52.50;;;29.80;;
20857;SDS011;10589;53.636;10.012;2022-12-16T14:28:01;52.20;;;31.10;;
20857;SDS011;10589;53.636;10.012;2022-12-16T14:31:25;49.60;;;29.43;;
20857;SDS011;10589;53.636;10.012;2022-12-16T14:34:18;52.57;;;31.17;;
20857;SDS011;10589;53.636;10.012;2022-12-16T14:37:18;54.23;;;31.43;;
20857;SDS011;10589;53.636;10.012;2022-12-16T14:43:13;55.33;;;32.07;;
20857;SDS011;10589;53.636;10.012;2022-12-16T14:46:02;53.00;;;31.03;;
20857;SDS011;10589;53.636;10.012;2022-12-16T14:48:47;51.20;;;31.03;;
20857;SDS011;10589;53.636;10.012;2022-12-16T14:51:36;50.53;;;32.10;;
20857;SDS011;10589;53.636;10.012;2022-12-16T14:57:20;49.10;;;32.30;;
20857;SDS011;10589;53.636;10.012;2022-12-16T15:00:19;55.27;;;32.43;;
20857;SDS011;10589;53.636;10.012;2022-12-16T15:06:23;53.47;;;31.77;;
20857;SDS011;10589;53.636;10.012;2022-12-16T15:09:10;52.37;;;31.43;;
20857;SDS011;10589;53.636;10.012;2022-12-16T15:12:02;52.23;;;32.10;;
20857;SDS011;10589;53.636;10.012;2022-12-16T15:14:46;54.43;;;34.43;;
20857;SDS011;10589;53.636;10.012;2022-12-16T15:17:40;53.80;;;33.47;;
20857;SDS011;10589;53.636;10.012;2022-12-16T15:20:26;58.57;;;34.10;;
20857;SDS011;10589;53.636;10.012;2022-12-16T15:23:23;58.93;;;33.53;;
20857;SDS011;10589;53.636;10.012;2022-12-16T15:26:22;55.33;;;34.00;;
20857;SDS011;10589;53.636;10.012;2022-12-16T15:35:28;53.13;;;32.90;;
20857;SDS011;10589;53.636;10.012;2022-12-16T15:38:23;60.40;;;35.10;;
20857;SDS011;10589;53.636;10.012;2022-12-16T15:44:14;54.50;;;34.30;;
20857;SDS011;10589;53.636;10.012;2022-12-16T15:46:59;58.90;;;35.50;;
20857;SDS011;10589;53.636;10.012;2022-12-16T15:49:44;61.03;;;35.70;;
20857;SDS011;10589;53.636;10.012;2022-12-16T15:55:23;56.07;;;35.60;;
20857;SDS011;10589;53.636;10.012;2022-12-16T15:58:12;62.00;;;36.90;;
20857;SDS011;10589;53.636;10.012;2022-12-16T16:00:57;59.40;;;36.30;;
20857;SDS011;10589;53.636;10.012;2022-12-16T16:03:51;61.73;;;37.27;;
20857;SDS011;10589;53.636;10.012;2022-12-16T16:06:37;58.00;;;36.93;;
20857;SDS011;10589;53.636;10.012;2022-12-16T16:09:28;59.77;;;35.93;;
20857;SDS011;10589;53.636;10.012;2022-12-16T16:12:18;65.97;;;36.97;;
20857;SDS011;10589;53.636;10.012;2022-12-16T16:15:04;70.03;;;38.83;;
20857;SDS011;10589;53.636;10.012;2022-12-16T16:17:53;68.87;;;39.20;;
20857;SDS011;10589;53.636;10.012;2022-12-16T16:20:39;75.53;;;42.50;;
20857;SDS011;10589;53.636;10.012;2022-12-16T16:23:24;68.87;;;40.03;;
20857;SDS011;10589;53.636;10.012;2022-12-16T16:26:15;63.63;;;39.93;;
20857;SDS011;10589;53.636;10.012;2022-12-16T16:29:01;63.57;;;37.77;;
20857;SDS011;10589;53.636;10.012;2022-12-16T16:31:45;61.40;;;37.37;;
20857;SDS011;10589;53.636;10.012;2022-12-16T16:34:29;63.77;;;37.83;;
20857;SDS011;10589;53.636;10.012;2022-12-16T16:37:14;67.67;;;38.13;;
20857;SDS011;10589;53.636;10.012;2022-12-16T16:40:00;69.03;;;39.83;;
20857;SDS011;10589;53.636;10.012;2022-12-16T16:42:54;66.57;;;39.57;;
20857;SDS011;10589;53.636;10.012;2022-12-16T16:45:38;71.50;;;42.30;;
20857;SDS011;10589;53.636;10.012;2022-12-16T16:48:22;69.03;;;39.27;;
20857;SDS011;10589;53.636;10.012;2022-12-16T16:51:07;61.57;;;38.53;;
20857;SDS011;10589;53.636;10.012;2022-12-16T16:53:50;71.23;;;40.03;;
20857;SDS011;10589;53.636;10.012;2022-12-16T16:56:35;78.70;;;42.23;;
20857;SDS011;10589;53.636;10.012;2022-12-16T16:59:22;66.97;;;40.57;;
20857;SDS011;10589;53.636;10.012;2022-12-16T17:02:17;68.43;;;41.63;;
20857;SDS011;10589;53.636;10.012;2022-12-16T17:05:04;72.70;;;41.60;;
20857;SDS011;10589;53.636;10.012;2022-12-16T17:07:49;70.03;;;40.40;;
20857;SDS011;10589;53.636;10.012;2022-12-16T17:10:33;67.60;;;42.27;;
20857;SDS011;10589;53.636;10.012;2022-12-16T17:13:18;70.97;;;43.63;;
20857;SDS011;10589;53.636;10.012;2022-12-16T17:16:02;75.63;;;42.90;;
20857;SDS011;10589;53.636;10.012;2022-12-16T17:18:46;74.13;;;42.70;;
20857;SDS011;10589;53.636;10.012;2022-12-16T17:21:30;71.47;;;42.53;;
20857;SDS011;10589;53.636;10.012;2022-12-16T17:24:14;68.27;;;41.40;;
20857;SDS011;10589;53.636;10.012;2022-12-16T17:27:05;71.47;;;40.60;;
20857;SDS011;10589;53.636;10.012;2022-12-16T17:29:55;70.97;;;42.23;;
20857;SDS011;10589;53.636;10.012;2022-12-16T17:32:39;72.43;;;41.73;;
20857;SDS011;10589;53.636;10.012;2022-12-16T17:35:23;71.03;;;41.70;;
20857;SDS011;10589;53.636;10.012;2022-12-16T17:38:09;70.23;;;40.90;;
20857;SDS011;10589;53.636;10.012;2022-12-16T17:40:54;69.37;;;40.53;;
20857;SDS011;10589;53.636;10.012;2022-12-16T17:43:38;68.97;;;40.90;;
20857;SDS011;10589;53.636;10.012;2022-12-16T17:46:23;70.23;;;40.63;;
20857;SDS011;10589;53.636;10.012;2022-12-16T17:49:08;70.80;;;42.53;;
20857;SDS011;10589;53.636;10.012;2022-12-16T17:51:52;72.33;;;42.93;;
20857;SDS011;10589;53.636;10.012;2022-12-16T17:54:36;72.33;;;43.40;;
20857;SDS011;10589;53.636;10.012;2022-12-16T17:57:20;79.60;;;45.37;;
20857;SDS011;10589;53.636;10.012;2022-12-16T18:00:05;73.43;;;42.73;;
20857;SDS011;10589;53.636;10.012;2022-12-16T18:02:49;73.43;;;44.20;;
20857;SDS011;10589;53.636;10.012;2022-12-16T18:05:33;74.23;;;43.57;;
20857;SDS011;10589;53.636;10.012;2022-12-16T18:08:18;66.50;;;40.43;;
20857;SDS011;10589;53.636;10.012;2022-12-16T18:11:02;71.50;;;43.60;;
20857;SDS011;10589;53.636;10.012;2022-12-16T18:13:46;77.53;;;45.20;;
20857;SDS011;10589;53.636;10.012;2022-12-16T18:16:30;68.90;;;43.83;;
20857;SDS011;10589;53.636;10.012;2022-12-16T18:19:14;75.43;;;43.97;;
20857;SDS011;10589;53.636;10.012;2022-12-16T18:21:59;73.00;;;43.47;;
20857;SDS011;10589;53.636;10.012;2022-12-16T18:24:43;76.33;;;45.00;;
20857;SDS011;10589;53.636;10.012;2022-12-16T18:27:28;73.97;;;44.27;;
20857;SDS011;10589;53.636;10.012;2022-12-16T18:30:12;82.10;;;44.27;;
20857;SDS011;10589;53.636;10.012;2022-12-16T18:32:57;75.63;;;42.90;;
20857;SDS011;10589;53.636;10.012;2022-12-16T18:35:41;79.07;;;45.63;;
20857;SDS011;10589;53.636;10.012;2022-12-16T18:38:25;80.07;;;45.23;;
20857;SDS011;10589;53.636;10.012;2022-12-16T18:41:13;76.17;;;44.33;;
20857;SDS011;10589;53.636;10.012;2022-12-16T18:44:03;72.70;;;44.70;;
20857;SDS011;10589;53.636;10.012;2022-12-16T18:46:48;78.53;;;45.90;;
20857;SDS011;10589;53.636;10.012;2022-12-16T18:49:33;83.30;;;47.43;;
20857;SDS011;10589;53.636;10.012;2022-12-16T18:52:17;75.77;;;44.07;;
20857;SDS011;10589;53.636;10.012;2022-12-16T18:55:02;77.50;;;44.97;;
20857;SDS011;10589;53.636;10.012;2022-12-16T18:57:49;78.00;;;44.93;;
20857;SDS011;10589;53.636;10.012;2022-12-16T19:00:34;79.17;;;47.83;;
20857;SDS011;10589;53.636;10.012;2022-12-16T19:03:18;85.93;;;48.30;;
20857;SDS011;10589;53.636;10.012;2022-12-16T19:06:02;78.67;;;45.87;;
20857;SDS011;10589;53.636;10.012;2022-12-16T19:08:46;78.53;;;47.97;;
20857;SDS011;10589;53.636;10.012;2022-12-16T19:11:30;78.77;;;47.67;;
20857;SDS011;10589;53.636;10.012;2022-12-16T19:14:14;81.63;;;47.67;;
20857;SDS011;10589;53.636;10.012;2022-12-16T19:16:58;78.23;;;48.33;;
20857;SDS011;10589;53.636;10.012;2022-12-16T19:19:43;77.43;;;46.13;;
20857;SDS011;10589;53.636;10.012;2022-12-16T19:22:27;79.30;;;46.03;;
20857;SDS011;10589;53.636;10.012;2022-12-16T19:25:11;75.37;;;45.67;;
20857;SDS011;10589;53.636;10.012;2022-12-16T19:27:55;86.00;;;50.17;;
20857;SDS011;10589;53.636;10.012;2022-12-16T19:30:39;84.40;;;51.60;;
20857;SDS011;10589;53.636;10.012;2022-12-16T19:33:23;86.57;;;51.53;;
20857;SDS011;10589;53.636;10.012;2022-12-16T19:36:07;80.07;;;49.33;;
20857;SDS011;10589;53.636;10.012;2022-12-16T19:38:51;83.63;;;50.47;;
20857;SDS011;10589;53.636;10.012;2022-12-16T19:41:35;86.17;;;51.27;;
20857;SDS011;10589;53.636;10.012;2022-12-16T19:44:19;83.27;;;50.97;;
20857;SDS011;10589;53.636;10.012;2022-12-16T19:47:03;81.83;;;50.47;;
20857;SDS011;10589;53.636;10.012;2022-12-16T19:49:47;96.10;;;53.57;;
20857;SDS011;10589;53.636;10.012;2022-12-16T19:52:31;81.80;;;49.17;;
20857;SDS011;10589;53.636;10.012;2022-12-16T19:55:15;84.57;;;49.17;;
20857;SDS011;10589;53.636;10.012;2022-12-16T19:58:00;89.57;;;50.43;;
20857;SDS011;10589;53.636;10.012;2022-12-16T20:00:44;87.80;;;51.23;;
20857;SDS011;10589;53.636;10.012;2022-12-16T20:03:28;92.90;;;54.90;;
20857;SDS011;10589;53.636;10.012;2022-12-16T20:06:12;94.43;;;54.57;;
20857;SDS011;10589;53.636;10.012;2022-12-16T20:08:57;93.73;;;54.63;;
20857;SDS011;10589;53.636;10.012;2022-12-16T20:11:41;83.73;;;52.67;;
20857;SDS011;10589;53.636;10.012;2022-12-16T20:14:26;88.20;;;54.13;;
20857;SDS011;10589;53.636;10.012;2022-12-16T20:17:10;98.53;;;54.93;;
20857;SDS011;10589;53.636;10.012;2022-12-16T20:19:54;94.53;;;53.30;;
20857;SDS011;10589;53.636;10.012;2022-12-16T20:22:38;90.60;;;54.20;;
20857;SDS011;10589;53.636;10.012;2022-12-16T20:25:23;93.53;;;54.70;;
20857;SDS011;10589;53.636;10.012;2022-12-16T20:28:07;94.53;;;52.07;;
20857;SDS011;10589;53.636;10.012;2022-12-16T20:30:51;98.63;;;54.60;;
20857;SDS011;10589;53.636;10.012;2022-12-16T20:33:35;88.13;;;52.20;;
20857;SDS011;10589;53.636;10.012;2022-12-16T20:36:19;88.90;;;53.10;;
20857;SDS011;10589;53.636;10.012;2022-12-16T20:39:03;100.23;;;56.87;;
20857;SDS011;10589;53.636;10.012;2022-12-16T20:41:47;94.73;;;53.97;;
20857;SDS011;10589;53.636;10.012;2022-12-16T20:44:31;90.70;;;53.03;;
20857;SDS011;10589;53.636;10.012;2022-12-16T20:47:15;90.23;;;54.43;;
20857;SDS011;10589;53.636;10.012;2022-12-16T20:50:00;94.20;;;52.13;;
20857;SDS011;10589;53.636;10.012;2022-12-16T20:52:44;82.20;;;50.73;;
20857;SDS011;10589;53.636;10.012;2022-12-16T20:55:28;84.40;;;52.57;;
20857;SDS011;10589;53.636;10.012;2022-12-16T20:58:26;100.43;;;58.73;;
20857;SDS011;10589;53.636;10.012;2022-12-16T21:01:10;95.93;;;56.40;;
20857;SDS011;10589;53.636;10.012;2022-12-16T21:03:54;94.40;;;55.67;;
20857;SDS011;10589;53.636;10.012;2022-12-16T21:06:38;90.93;;;52.83;;
20857;SDS011;10589;53.636;10.012;2022-12-16T21:09:22;92.10;;;54.67;;
20857;SDS011;10589;53.636;10.012;2022-12-16T21:12:06;91.23;;;52.57;;
20857;SDS011;10589;53.636;10.012;2022-12-16T21:14:50;88.67;;;53.53;;
20857;SDS011;10589;53.636;10.012;2022-12-16T21:17:34;90.30;;;54.70;;
20857;SDS011;10589;53.636;10.012;2022-12-16T21:20:18;98.57;;;54.07;;
20857;SDS011;10589;53.636;10.012;2022-12-16T21:23:03;91.47;;;51.13;;
20857;SDS011;10589;53.636;10.012;2022-12-16T21:25:49;83.10;;;50.97;;
20857;SDS011;10589;53.636;10.012;2022-12-16T21:28:33;83.07;;;49.40;;
20857;SDS011;10589;53.636;10.012;2022-12-16T21:31:18;84.70;;;50.40;;
20857;SDS011;10589;53.636;10.012;2022-12-16T21:34:02;83.00;;;49.17;;
20857;SDS011;10589;53.636;10.012;2022-12-16T21:36:48;84.17;;;50.63;;
20857;SDS011;10589;53.636;10.012;2022-12-16T21:39:33;77.23;;;47.50;;
20857;SDS011;10589;53.636;10.012;2022-12-16T21:42:17;79.30;;;47.70;;
20857;SDS011;10589;53.636;10.012;2022-12-16T21:45:01;81.23;;;47.77;;
20857;SDS011;10589;53.636;10.012;2022-12-16T21:47:45;82.93;;;51.67;;
20857;SDS011;10589;53.636;10.012;2022-12-16T21:50:29;84.57;;;50.97;;
20857;SDS011;10589;53.636;10.012;2022-12-16T21:53:16;92.10;;;51.70;;
20857;SDS011;10589;53.636;10.012;2022-12-16T21:56:07;87.90;;;52.20;;
20857;SDS011;10589;53.636;10.012;2022-12-16T21:58:52;82.73;;;50.93;;
20857;SDS011;10589;53.636;10.012;2022-12-16T22:01:36;90.53;;;52.67;;
20857;SDS011;10589;53.636;10.012;2022-12-16T22:04:21;83.40;;;51.47;;
20857;SDS011;10589;53.636;10.012;2022-12-16T22:07:05;97.43;;;52.53;;
20857;SDS011;10589;53.636;10.012;2022-12-16T22:09:50;90.33;;;52.60;;
20857;SDS011;10589;53.636;10.012;2022-12-16T22:12:34;90.50;;;51.00;;
20857;SDS011;10589;53.636;10.012;2022-12-16T22:15:18;93.17;;;51.73;;
20857;SDS011;10589;53.636;10.012;2022-12-16T22:18:03;90.77;;;51.50;;
20857;SDS011;10589;53.636;10.012;2022-12-16T22:20:58;90.17;;;53.20;;
20857;SDS011;10589;53.636;10.012;2022-12-16T22:23:44;87.90;;;51.37;;
20857;SDS011;10589;53.636;10.012;2022-12-16T22:26:28;83.40;;;49.70;;
20857;SDS011;10589;53.636;10.012;2022-12-16T22:29:12;82.00;;;49.23;;